FCYISA BPMF-VIBR
Flight info
| Callsign | FCYISA |
|---|---|
| Flight time | N/A |
| Altitude | 14500 |
| Route | DCT |
| Aircraft | PC12/L-V/N |
Departure
| Time | N/A |
|---|---|
| Airport | BPMF |
Arrival
| Time | 2026-05-06 19:58 |
|---|---|
| Airport | Kullu Manali Airport (VIBR) |
| Time | Latitude | Longitude | Altitude | Speed | Heading |
|---|---|---|---|---|---|
| 2026-05-06 18:48 | 34.34156 | 73.50571 | 2754 ft | 0 kts | 294° |
| 2026-05-06 18:53 | 34.34169 | 73.50540 | 2760 ft | 4 kts | 298° |
| 2026-05-06 18:54 | 34.34183 | 73.50520 | 2760 ft | 6 kts | 303° |
| 2026-05-06 18:54 | 34.34211 | 73.50461 | 2759 ft | 4 kts | 301° |
| 2026-05-06 18:54 | 34.34205 | 73.50459 | 2759 ft | 1 kts | 148° |
| 2026-05-06 18:54 | 34.34204 | 73.50460 | 2759 ft | 0 kts | 141° |
| 2026-05-06 18:55 | 34.34198 | 73.50466 | 2759 ft | 0 kts | 142° |
| 2026-05-06 18:55 | 34.34197 | 73.50467 | 2760 ft | 2 kts | 142° |
| 2026-05-06 18:55 | 34.34151 | 73.50529 | 2761 ft | 27 kts | 129° |
| 2026-05-06 18:56 | 34.33885 | 73.50885 | 2770 ft | 85 kts | 131° |
| 2026-05-06 18:56 | 34.33574 | 73.51317 | 2820 ft | 114 kts | 127° |
| 2026-05-06 18:56 | 34.32923 | 73.52075 | 3008 ft | 146 kts | 139° |
| 2026-05-06 18:56 | 34.32059 | 73.52901 | 3340 ft | 172 kts | 141° |
| 2026-05-06 18:57 | 34.31031 | 73.53797 | 3696 ft | 191 kts | 143° |
| 2026-05-06 18:57 | 34.29897 | 73.54735 | 4076 ft | 204 kts | 143° |
| 2026-05-06 18:57 | 34.28700 | 73.55739 | 4484 ft | 212 kts | 146° |
| 2026-05-06 18:57 | 34.27470 | 73.56678 | 5172 ft | 204 kts | 146° |
| 2026-05-06 18:58 | 34.26326 | 73.57649 | 5763 ft | 206 kts | 142° |
| 2026-05-06 18:58 | 34.25169 | 73.58748 | 6146 ft | 217 kts | 140° |
| 2026-05-06 18:58 | 34.24143 | 73.60040 | 6817 ft | 208 kts | 128° |
| 2026-05-06 18:58 | 34.23279 | 73.61493 | 7227 ft | 221 kts | 124° |
| 2026-05-06 18:59 | 34.22416 | 73.63116 | 7405 ft | 237 kts | 120° |
| 2026-05-06 18:59 | 34.21624 | 73.64875 | 7739 ft | 240 kts | 118° |
| 2026-05-06 18:59 | 34.20861 | 73.66682 | 8182 ft | 239 kts | 114° |
| 2026-05-06 18:59 | 34.20210 | 73.68510 | 8607 ft | 234 kts | 110° |
| 2026-05-06 19:00 | 34.19626 | 73.70346 | 9022 ft | 235 kts | 110° |
| 2026-05-06 19:00 | 34.18990 | 73.72190 | 9381 ft | 241 kts | 114° |
| 2026-05-06 19:00 | 34.18272 | 73.74031 | 9782 ft | 243 kts | 115° |
| 2026-05-06 19:00 | 34.17601 | 73.75877 | 10318 ft | 237 kts | 112° |
| 2026-05-06 19:01 | 34.16994 | 73.77711 | 10869 ft | 235 kts | 111° |
| 2026-05-06 19:01 | 34.16338 | 73.79546 | 11227 ft | 242 kts | 113° |
| 2026-05-06 19:01 | 34.15670 | 73.81411 | 11716 ft | 239 kts | 111° |
| 2026-05-06 19:01 | 34.14909 | 73.83216 | 12122 ft | 243 kts | 115° |
| 2026-05-06 19:02 | 34.14158 | 73.85019 | 12666 ft | 237 kts | 112° |
| 2026-05-06 19:02 | 34.13534 | 73.86822 | 13344 ft | 229 kts | 109° |
| 2026-05-06 19:02 | 34.12920 | 73.88607 | 13766 ft | 233 kts | 109° |
| 2026-05-06 19:02 | 34.12310 | 73.90368 | 14302 ft | 225 kts | 109° |
| 2026-05-06 19:03 | 34.11701 | 73.92073 | 14838 ft | 220 kts | 109° |
| 2026-05-06 19:03 | 34.11076 | 73.93779 | 15241 ft | 223 kts | 110° |
| 2026-05-06 19:03 | 34.10334 | 73.95416 | 15700 ft | 223 kts | 118° |
| 2026-05-06 19:03 | 34.09445 | 73.96949 | 16199 ft | 222 kts | 125° |
| 2026-05-06 19:04 | 34.08439 | 73.98345 | 16700 ft | 220 kts | 126° |
| 2026-05-06 19:04 | 34.07466 | 73.99769 | 17147 ft | 218 kts | 122° |
| 2026-05-06 19:04 | 34.06560 | 74.01215 | 17728 ft | 216 kts | 122° |
| 2026-05-06 19:04 | 34.05642 | 74.02693 | 18233 ft | 218 kts | 122° |
| 2026-05-06 19:05 | 34.04706 | 74.04160 | 18586 ft | 225 kts | 124° |
| 2026-05-06 19:05 | 34.03638 | 74.05622 | 18714 ft | 241 kts | 129° |
| 2026-05-06 19:05 | 34.02523 | 74.07141 | 18773 ft | 253 kts | 126° |
| 2026-05-06 19:05 | 34.01351 | 74.08765 | 18936 ft | 259 kts | 127° |
| 2026-05-06 19:06 | 34.00133 | 74.10404 | 19140 ft | 259 kts | 128° |
| 2026-05-06 19:06 | 33.98898 | 74.12048 | 19009 ft | 272 kts | 128° |
| 2026-05-06 19:06 | 33.97594 | 74.13762 | 18799 ft | 281 kts | 129° |
| 2026-05-06 19:06 | 33.96243 | 74.15489 | 18600 ft | 285 kts | 129° |
| 2026-05-06 19:07 | 33.94880 | 74.17218 | 18550 ft | 283 kts | 130° |
| 2026-05-06 19:07 | 33.93532 | 74.18935 | 18546 ft | 281 kts | 129° |
| 2026-05-06 19:07 | 33.92212 | 74.20620 | 18550 ft | 280 kts | 129° |
| 2026-05-06 19:07 | 33.90879 | 74.22316 | 18533 ft | 277 kts | 129° |
| 2026-05-06 19:08 | 33.89557 | 74.23984 | 18560 ft | 276 kts | 130° |
| 2026-05-06 19:08 | 33.88232 | 74.25657 | 18557 ft | 276 kts | 130° |
| 2026-05-06 19:08 | 33.86907 | 74.27328 | 18556 ft | 277 kts | 130° |
| 2026-05-06 19:08 | 33.85577 | 74.29013 | 18559 ft | 277 kts | 129° |
| 2026-05-06 19:09 | 33.84251 | 74.30696 | 18563 ft | 277 kts | 129° |
| 2026-05-06 19:09 | 33.82921 | 74.32378 | 18560 ft | 277 kts | 129° |
| 2026-05-06 19:09 | 33.81592 | 74.34054 | 18542 ft | 277 kts | 129° |
| 2026-05-06 19:09 | 33.80260 | 74.35739 | 18543 ft | 277 kts | 129° |
| 2026-05-06 19:10 | 33.78942 | 74.37415 | 18554 ft | 275 kts | 130° |
| 2026-05-06 19:10 | 33.77638 | 74.39094 | 18554 ft | 274 kts | 130° |
| 2026-05-06 19:10 | 33.76344 | 74.40769 | 18557 ft | 273 kts | 129° |
| 2026-05-06 19:10 | 33.75050 | 74.42440 | 18554 ft | 273 kts | 130° |
| 2026-05-06 19:11 | 33.73758 | 74.44109 | 18557 ft | 272 kts | 129° |
| 2026-05-06 19:11 | 33.72462 | 74.45772 | 18557 ft | 272 kts | 129° |
| 2026-05-06 19:11 | 33.71162 | 74.47438 | 18549 ft | 274 kts | 129° |
| 2026-05-06 19:11 | 33.69859 | 74.49112 | 18540 ft | 275 kts | 129° |
| 2026-05-06 19:12 | 33.68555 | 74.50781 | 18552 ft | 274 kts | 129° |
| 2026-05-06 19:12 | 33.67255 | 74.52436 | 18552 ft | 275 kts | 129° |
| 2026-05-06 19:12 | 33.65941 | 74.54103 | 18560 ft | 276 kts | 129° |
| 2026-05-06 19:12 | 33.64603 | 74.55801 | 18540 ft | 277 kts | 129° |
| 2026-05-06 19:13 | 33.63280 | 74.57478 | 18538 ft | 276 kts | 129° |
| 2026-05-06 19:13 | 33.61957 | 74.59154 | 18541 ft | 277 kts | 130° |
| 2026-05-06 19:13 | 33.60633 | 74.60832 | 18539 ft | 277 kts | 129° |
| 2026-05-06 19:13 | 33.59313 | 74.62513 | 18537 ft | 277 kts | 129° |
| 2026-05-06 19:14 | 33.57994 | 74.64192 | 18530 ft | 276 kts | 129° |
| 2026-05-06 19:14 | 33.56694 | 74.65844 | 18530 ft | 276 kts | 129° |
| 2026-05-06 19:14 | 33.55368 | 74.67528 | 18523 ft | 278 kts | 129° |
| 2026-05-06 19:14 | 33.54049 | 74.69220 | 18517 ft | 275 kts | 129° |
| 2026-05-06 19:15 | 33.52749 | 74.70887 | 18530 ft | 274 kts | 129° |
| 2026-05-06 19:15 | 33.51444 | 74.72566 | 18520 ft | 276 kts | 130° |
| 2026-05-06 19:15 | 33.50139 | 74.74243 | 18510 ft | 275 kts | 130° |
| 2026-05-06 19:15 | 33.48843 | 74.75923 | 18513 ft | 274 kts | 129° |
| 2026-05-06 19:16 | 33.47560 | 74.77606 | 18490 ft | 274 kts | 129° |
| 2026-05-06 19:16 | 33.46273 | 74.79295 | 18499 ft | 275 kts | 129° |
| 2026-05-06 19:16 | 33.44985 | 74.80980 | 18493 ft | 274 kts | 129° |
| 2026-05-06 19:16 | 33.43703 | 74.82661 | 18504 ft | 273 kts | 129° |
| 2026-05-06 19:17 | 33.42415 | 74.84342 | 18501 ft | 274 kts | 129° |
| 2026-05-06 19:17 | 33.41123 | 74.86028 | 18499 ft | 275 kts | 129° |
| 2026-05-06 19:17 | 33.39828 | 74.87717 | 18503 ft | 274 kts | 129° |
| 2026-05-06 19:17 | 33.38539 | 74.89402 | 18478 ft | 275 kts | 129° |
| 2026-05-06 19:18 | 33.37243 | 74.91099 | 18479 ft | 276 kts | 129° |
| 2026-05-06 19:18 | 33.35948 | 74.92790 | 18481 ft | 276 kts | 129° |
| 2026-05-06 19:18 | 33.34649 | 74.94483 | 18485 ft | 275 kts | 129° |
| 2026-05-06 19:18 | 33.33356 | 74.96169 | 18482 ft | 275 kts | 129° |
| 2026-05-06 19:19 | 33.32060 | 74.97847 | 18479 ft | 274 kts | 129° |
| 2026-05-06 19:19 | 33.30764 | 74.99527 | 18474 ft | 274 kts | 129° |
| 2026-05-06 19:19 | 33.29470 | 75.01207 | 18441 ft | 275 kts | 130° |
| 2026-05-06 19:19 | 33.28183 | 75.02916 | 18443 ft | 278 kts | 129° |
| 2026-05-06 19:20 | 33.26891 | 75.04652 | 18442 ft | 280 kts | 129° |
| 2026-05-06 19:20 | 33.25595 | 75.06397 | 18456 ft | 281 kts | 129° |
| 2026-05-06 19:20 | 33.24320 | 75.08120 | 18470 ft | 280 kts | 129° |
| 2026-05-06 19:20 | 33.23031 | 75.09859 | 18469 ft | 279 kts | 129° |
| 2026-05-06 19:21 | 33.21747 | 75.11591 | 18466 ft | 278 kts | 129° |
| 2026-05-06 19:21 | 33.20467 | 75.13317 | 18434 ft | 278 kts | 129° |
| 2026-05-06 19:21 | 33.19189 | 75.15044 | 18432 ft | 277 kts | 129° |
| 2026-05-06 19:21 | 33.17910 | 75.16768 | 18437 ft | 277 kts | 129° |
| 2026-05-06 19:22 | 33.16632 | 75.18495 | 18437 ft | 277 kts | 129° |
| 2026-05-06 19:22 | 33.15354 | 75.20219 | 18434 ft | 277 kts | 129° |
| 2026-05-06 19:22 | 33.14078 | 75.21942 | 18465 ft | 277 kts | 129° |
| 2026-05-06 19:22 | 33.12799 | 75.23670 | 18462 ft | 278 kts | 129° |
| 2026-05-06 19:23 | 33.11521 | 75.25394 | 18429 ft | 278 kts | 129° |
| 2026-05-06 19:23 | 33.10240 | 75.27122 | 18430 ft | 278 kts | 129° |
| 2026-05-06 19:23 | 33.08960 | 75.28848 | 18429 ft | 278 kts | 129° |
| 2026-05-06 19:23 | 33.07684 | 75.30571 | 18429 ft | 277 kts | 129° |
| 2026-05-06 19:24 | 33.06407 | 75.32298 | 18434 ft | 278 kts | 129° |
| 2026-05-06 19:24 | 33.05128 | 75.34025 | 18431 ft | 277 kts | 129° |
| 2026-05-06 19:24 | 33.03854 | 75.35745 | 18462 ft | 277 kts | 129° |
| 2026-05-06 19:24 | 33.02579 | 75.37464 | 18432 ft | 277 kts | 129° |
| 2026-05-06 19:25 | 33.01303 | 75.39189 | 18431 ft | 277 kts | 129° |
| 2026-05-06 19:25 | 33.00036 | 75.40905 | 18432 ft | 277 kts | 129° |
| 2026-05-06 19:25 | 32.98765 | 75.42627 | 18439 ft | 277 kts | 129° |
| 2026-05-06 19:25 | 32.97496 | 75.44354 | 18437 ft | 275 kts | 129° |
| 2026-05-06 19:26 | 32.96245 | 75.46064 | 18437 ft | 273 kts | 129° |
| 2026-05-06 19:26 | 32.95000 | 75.47772 | 18435 ft | 273 kts | 129° |
| 2026-05-06 19:26 | 32.93757 | 75.49479 | 18434 ft | 272 kts | 129° |
| 2026-05-06 19:26 | 32.92521 | 75.51177 | 18471 ft | 271 kts | 129° |
| 2026-05-06 19:27 | 32.91281 | 75.52878 | 18472 ft | 272 kts | 129° |
| 2026-05-06 19:27 | 32.90041 | 75.54576 | 18470 ft | 272 kts | 129° |
| 2026-05-06 19:27 | 32.88802 | 75.56274 | 18470 ft | 272 kts | 129° |
| 2026-05-06 19:27 | 32.87559 | 75.57974 | 18472 ft | 272 kts | 129° |
| 2026-05-06 19:28 | 32.86323 | 75.59666 | 18469 ft | 271 kts | 129° |
| 2026-05-06 19:28 | 32.85084 | 75.61362 | 18440 ft | 272 kts | 129° |
| 2026-05-06 19:28 | 32.83841 | 75.63054 | 18442 ft | 272 kts | 129° |
| 2026-05-06 19:28 | 32.82595 | 75.64748 | 18470 ft | 272 kts | 129° |
| 2026-05-06 19:29 | 32.81351 | 75.66439 | 18473 ft | 272 kts | 129° |
| 2026-05-06 19:29 | 32.80104 | 75.68138 | 18469 ft | 272 kts | 129° |
| 2026-05-06 19:29 | 32.78861 | 75.69829 | 18471 ft | 272 kts | 129° |
| 2026-05-06 19:29 | 32.77614 | 75.71525 | 18470 ft | 272 kts | 129° |
| 2026-05-06 19:30 | 32.76349 | 75.73244 | 18467 ft | 273 kts | 129° |
| 2026-05-06 19:30 | 32.75118 | 75.74918 | 18439 ft | 272 kts | 129° |
| 2026-05-06 19:30 | 32.73858 | 75.76635 | 18446 ft | 273 kts | 129° |
| 2026-05-06 19:30 | 32.72624 | 75.78317 | 18446 ft | 274 kts | 129° |
| 2026-05-06 19:31 | 32.71364 | 75.80014 | 18477 ft | 273 kts | 129° |
| 2026-05-06 19:31 | 32.70096 | 75.81691 | 18476 ft | 272 kts | 129° |
| 2026-05-06 19:31 | 32.67564 | 75.85027 | 18473 ft | 271 kts | 129° |
| 2026-05-06 19:32 | 32.66299 | 75.86691 | 18450 ft | 271 kts | 129° |
| 2026-05-06 19:32 | 32.65036 | 75.88350 | 18450 ft | 272 kts | 129° |
| 2026-05-06 19:32 | 32.63767 | 75.90018 | 18446 ft | 272 kts | 129° |
| 2026-05-06 19:32 | 32.62502 | 75.91683 | 18447 ft | 272 kts | 130° |
| 2026-05-06 19:33 | 32.61247 | 75.93358 | 18478 ft | 271 kts | 129° |
| 2026-05-06 19:33 | 32.60012 | 75.95029 | 18475 ft | 270 kts | 129° |
| 2026-05-06 19:33 | 32.58780 | 75.96707 | 18476 ft | 270 kts | 129° |
| 2026-05-06 19:33 | 32.57546 | 75.98392 | 18450 ft | 271 kts | 129° |
| 2026-05-06 19:34 | 32.56309 | 76.00078 | 18441 ft | 270 kts | 129° |
| 2026-05-06 19:34 | 32.55076 | 76.01751 | 18447 ft | 269 kts | 129° |
| 2026-05-06 19:34 | 32.53847 | 76.03429 | 18451 ft | 270 kts | 129° |
| 2026-05-06 19:34 | 32.52614 | 76.05117 | 18451 ft | 271 kts | 129° |
| 2026-05-06 19:35 | 32.51379 | 76.06807 | 18456 ft | 271 kts | 129° |
| 2026-05-06 19:35 | 32.50139 | 76.08502 | 18498 ft | 272 kts | 129° |
| 2026-05-06 19:35 | 32.48901 | 76.10196 | 18497 ft | 272 kts | 129° |
| 2026-05-06 19:35 | 32.47659 | 76.11895 | 18473 ft | 272 kts | 129° |
| 2026-05-06 19:36 | 32.46840 | 76.13017 | 18473 ft | 272 kts | 129° |
| 2026-05-06 19:36 | 32.45598 | 76.14711 | 18474 ft | 273 kts | 129° |
| 2026-05-06 19:36 | 32.44355 | 76.16416 | 18469 ft | 272 kts | 129° |
| 2026-05-06 19:36 | 32.43118 | 76.18113 | 18469 ft | 272 kts | 129° |
| 2026-05-06 19:37 | 32.41882 | 76.19809 | 18470 ft | 272 kts | 129° |
| 2026-05-06 19:37 | 32.40649 | 76.21505 | 18467 ft | 272 kts | 129° |
| 2026-05-06 19:37 | 32.39416 | 76.23202 | 18490 ft | 272 kts | 129° |
| 2026-05-06 19:37 | 32.38184 | 76.24890 | 18477 ft | 272 kts | 129° |
| 2026-05-06 19:38 | 32.36973 | 76.26601 | 18473 ft | 270 kts | 123° |
| 2026-05-06 19:38 | 32.36040 | 76.28524 | 18473 ft | 269 kts | 116° |
| 2026-05-06 19:38 | 32.35074 | 76.30433 | 18475 ft | 270 kts | 124° |
| 2026-05-06 19:38 | 32.33875 | 76.32151 | 18474 ft | 271 kts | 130° |
| 2026-05-06 19:39 | 32.32616 | 76.33822 | 18363 ft | 276 kts | 129° |
| 2026-05-06 19:39 | 32.31350 | 76.35555 | 18084 ft | 280 kts | 129° |
| 2026-05-06 19:39 | 32.30083 | 76.37315 | 17833 ft | 282 kts | 129° |
| 2026-05-06 19:39 | 32.28798 | 76.39084 | 17552 ft | 284 kts | 129° |
| 2026-05-06 19:40 | 32.27506 | 76.40846 | 17277 ft | 284 kts | 129° |
| 2026-05-06 19:40 | 32.26213 | 76.42619 | 16997 ft | 284 kts | 129° |
| 2026-05-06 19:40 | 32.24926 | 76.44386 | 16721 ft | 284 kts | 129° |
| 2026-05-06 19:40 | 32.23641 | 76.46153 | 16450 ft | 283 kts | 129° |
| 2026-05-06 19:41 | 32.22359 | 76.47908 | 16178 ft | 282 kts | 129° |
| 2026-05-06 19:41 | 32.21079 | 76.49660 | 15875 ft | 281 kts | 129° |
| 2026-05-06 19:41 | 32.19817 | 76.51390 | 15666 ft | 282 kts | 129° |
| 2026-05-06 19:41 | 32.18572 | 76.53204 | 15518 ft | 278 kts | 125° |
| 2026-05-06 19:42 | 32.17481 | 76.55024 | 15515 ft | 272 kts | 123° |
| 2026-05-06 19:42 | 32.16419 | 76.56851 | 15519 ft | 269 kts | 123° |
| 2026-05-06 19:42 | 32.15361 | 76.58668 | 15476 ft | 269 kts | 123° |
| 2026-05-06 19:42 | 32.14276 | 76.60536 | 15042 ft | 280 kts | 123° |
| 2026-05-06 19:43 | 32.13169 | 76.62448 | 14622 ft | 279 kts | 123° |
| 2026-05-06 19:43 | 32.12145 | 76.64223 | 14163 ft | 250 kts | 123° |
| 2026-05-06 19:43 | 32.11174 | 76.65904 | 13773 ft | 246 kts | 123° |
| 2026-05-06 19:43 | 32.10221 | 76.67556 | 13517 ft | 239 kts | 123° |
| 2026-05-06 19:44 | 32.09303 | 76.69146 | 13512 ft | 229 kts | 123° |
| 2026-05-06 19:44 | 32.08414 | 76.70688 | 13511 ft | 226 kts | 123° |
| 2026-05-06 19:44 | 32.07534 | 76.72218 | 13510 ft | 225 kts | 123° |
| 2026-05-06 19:44 | 32.06660 | 76.73743 | 13511 ft | 224 kts | 122° |
| 2026-05-06 19:45 | 32.05795 | 76.75242 | 13509 ft | 224 kts | 123° |
| 2026-05-06 19:45 | 32.04914 | 76.76759 | 13510 ft | 223 kts | 123° |
| 2026-05-06 19:45 | 32.04044 | 76.78266 | 13516 ft | 221 kts | 122° |
| 2026-05-06 19:45 | 32.03173 | 76.79781 | 13303 ft | 230 kts | 123° |
| 2026-05-06 19:46 | 32.02261 | 76.81375 | 12877 ft | 238 kts | 123° |
| 2026-05-06 19:46 | 32.01332 | 76.83005 | 12561 ft | 238 kts | 123° |
| 2026-05-06 19:46 | 32.00431 | 76.84590 | 12524 ft | 229 kts | 123° |
| 2026-05-06 19:46 | 31.99550 | 76.86141 | 12522 ft | 226 kts | 122° |
| 2026-05-06 19:47 | 31.98680 | 76.87671 | 12519 ft | 224 kts | 123° |
| 2026-05-06 19:47 | 31.97819 | 76.89194 | 12515 ft | 223 kts | 123° |
| 2026-05-06 19:47 | 31.96961 | 76.90706 | 12512 ft | 222 kts | 123° |
| 2026-05-06 19:47 | 31.96102 | 76.92219 | 12515 ft | 222 kts | 123° |
| 2026-05-06 19:48 | 31.95247 | 76.93721 | 12518 ft | 221 kts | 123° |
| 2026-05-06 19:48 | 31.94454 | 76.95275 | 12559 ft | 221 kts | 116° |
| 2026-05-06 19:48 | 31.93809 | 76.96916 | 12535 ft | 221 kts | 113° |
| 2026-05-06 19:48 | 31.93192 | 76.98573 | 12536 ft | 221 kts | 113° |
| 2026-05-06 19:49 | 31.92577 | 77.00232 | 12537 ft | 221 kts | 113° |
| 2026-05-06 19:49 | 31.91963 | 77.01889 | 12537 ft | 221 kts | 112° |
| 2026-05-06 19:49 | 31.91351 | 77.03548 | 12535 ft | 221 kts | 113° |
| 2026-05-06 19:49 | 31.90744 | 77.05192 | 12536 ft | 222 kts | 112° |
| 2026-05-06 19:50 | 31.90123 | 77.06876 | 12534 ft | 221 kts | 113° |
| 2026-05-06 19:50 | 31.89495 | 77.08529 | 12557 ft | 221 kts | 118° |
| 2026-05-06 19:50 | 31.88407 | 77.09729 | 12561 ft | 221 kts | 148° |
| 2026-05-06 19:50 | 31.87049 | 77.10584 | 12565 ft | 222 kts | 152° |
| 2026-05-06 19:51 | 31.85673 | 77.11401 | 12568 ft | 222 kts | 153° |
| 2026-05-06 19:51 | 31.84293 | 77.12219 | 12546 ft | 222 kts | 153° |
| 2026-05-06 19:51 | 31.82887 | 77.12968 | 12547 ft | 222 kts | 159° |
| 2026-05-06 19:51 | 31.81422 | 77.13556 | 12547 ft | 223 kts | 161° |
| 2026-05-06 19:52 | 31.79945 | 77.14114 | 12550 ft | 223 kts | 162° |
| 2026-05-06 19:52 | 31.78468 | 77.14667 | 12550 ft | 223 kts | 162° |
| 2026-05-06 19:52 | 31.76989 | 77.15221 | 12550 ft | 223 kts | 162° |
| 2026-05-06 19:52 | 31.75506 | 77.15772 | 12544 ft | 224 kts | 162° |
| 2026-05-06 19:53 | 31.74014 | 77.16303 | 12526 ft | 223 kts | 165° |
| 2026-05-06 19:53 | 31.72496 | 77.16711 | 12525 ft | 224 kts | 167° |
| 2026-05-06 19:53 | 31.70975 | 77.17085 | 12529 ft | 223 kts | 168° |
| 2026-05-06 19:53 | 31.69452 | 77.17460 | 12529 ft | 223 kts | 168° |
| 2026-05-06 19:54 | 31.67925 | 77.17841 | 12531 ft | 224 kts | 168° |
| 2026-05-06 19:54 | 31.66561 | 77.18453 | 12719 ft | 191 kts | 138° |
| 2026-05-06 19:54 | 31.66093 | 77.19774 | 12276 ft | 185 kts | 73° |
| 2026-05-06 19:54 | 31.67106 | 77.20719 | 11139 ft | 213 kts | 16° |
| 2026-05-06 19:55 | 31.68657 | 77.21222 | 10203 ft | 238 kts | 11° |
| 2026-05-06 19:55 | 31.70312 | 77.21418 | 9297 ft | 243 kts | 1° |
| 2026-05-06 19:55 | 31.72008 | 77.21358 | 8347 ft | 249 kts | 354° |
| 2026-05-06 19:55 | 31.73767 | 77.21044 | 7235 ft | 261 kts | 349° |
| 2026-05-06 19:56 | 31.75530 | 77.20558 | 6285 ft | 259 kts | 344° |
| 2026-05-06 19:56 | 31.77295 | 77.19948 | 5155 ft | 264 kts | 348° |
| 2026-05-06 19:56 | 31.78999 | 77.19373 | 4634 ft | 244 kts | 342° |
| 2026-05-06 19:56 | 31.80617 | 77.18797 | 3928 ft | 238 kts | 343° |
| 2026-05-06 19:57 | 31.82112 | 77.18187 | 3769 ft | 209 kts | 341° |
| 2026-05-06 19:57 | 31.83347 | 77.17630 | 3779 ft | 176 kts | 340° |
| 2026-05-06 19:57 | 31.84359 | 77.17168 | 3791 ft | 140 kts | 341° |
| 2026-05-06 19:57 | 31.85236 | 77.16771 | 3821 ft | 133 kts | 340° |
| 2026-05-06 19:58 | 31.86080 | 77.16393 | 3821 ft | 123 kts | 337° |
| 2026-05-06 19:58 | 31.86822 | 77.15980 | 3778 ft | 115 kts | 334° |
| 2026-05-06 19:58 | 31.87485 | 77.15522 | 3672 ft | 102 kts | 341° |
| 2026-05-06 19:58 | 31.87907 | 77.15317 | 3677 ft | 19 kts | 316° |
| 2026-05-06 19:59 | 31.87836 | 77.15256 | 3676 ft | 8 kts | 173° |
| 2026-05-06 19:59 | 31.87769 | 77.15264 | 3674 ft | 5 kts | 263° |
| 2026-05-06 19:59 | 31.87753 | 77.15235 | 3674 ft | 2 kts | 96° |
| 2026-05-06 19:59 | 31.87754 | 77.15236 | 3674 ft | 0 kts | 75° |